FJI890 NFFN-KDFW
Flight info
| Callsign | FJI890 |
|---|---|
| Flight time | N/A |
| Altitude | 35000 |
| Route | CHARLI PANDO B577 PARZO DCT KETUS DCT 10S170W 07S165W DCT PASSA/N0491F370 DCT 01S157W 03N151W 08N145W 12N140W/N0481F390 DCT BORIC DCT 19N128W 22N120W 24N115W DCT LTO/N0476F410 UJ2 CUU DCT AMUKI DCT MRTHN DCT DOGEY DCT JCT DCT GUTZZ BOOVE7 |
| Aircraft | A359/H-SDE2E3GHIJ3J4J5LM1ORWXY/LB1D1 |
Departure
| Time | 2026-05-08 15:59 |
|---|---|
| Airport | Nadi International Airport (NFFN) |
Arrival
| Time | N/A |
|---|---|
| Airport | Dallas Fort Worth International Airport (KDFW) |
| Time | Latitude | Longitude | Altitude | Speed | Heading |
|---|---|---|---|---|---|
| 2026-05-08 15:40 | -17.75253 | 177.44986 | 53 ft | 0 kts | 104° |
| 2026-05-08 15:51 | -17.75248 | 177.44965 | 51 ft | 2 kts | 103° |
| 2026-05-08 15:51 | -17.75246 | 177.44942 | 50 ft | 4 kts | 72° |
| 2026-05-08 15:51 | -17.75260 | 177.44922 | 46 ft | 4 kts | 23° |
| 2026-05-08 15:51 | -17.75283 | 177.44915 | 47 ft | 2 kts | 14° |
| 2026-05-08 15:52 | -17.75284 | 177.44914 | 47 ft | 5 kts | 14° |
| 2026-05-08 15:54 | -17.75284 | 177.44915 | 53 ft | 1 kts | 14° |
| 2026-05-08 15:54 | -17.75267 | 177.44920 | 49 ft | 5 kts | 16° |
| 2026-05-08 15:55 | -17.75219 | 177.44932 | 50 ft | 10 kts | 14° |
| 2026-05-08 15:55 | -17.75054 | 177.44949 | 49 ft | 9 kts | 313° |
| 2026-05-08 15:55 | -17.75030 | 177.44873 | 48 ft | 14 kts | 282° |
| 2026-05-08 15:56 | -17.75022 | 177.44836 | 49 ft | 15 kts | 282° |
| 2026-05-08 15:56 | -17.75014 | 177.44785 | 47 ft | 7 kts | 279° |
| 2026-05-08 15:56 | -17.75022 | 177.44724 | 49 ft | 10 kts | 232° |
| 2026-05-08 15:56 | -17.75061 | 177.44688 | 50 ft | 0 kts | 217° |
| 2026-05-08 15:58 | -17.75062 | 177.44687 | 50 ft | 2 kts | 217° |
| 2026-05-08 15:58 | -17.75145 | 177.44619 | 46 ft | 42 kts | 217° |
| 2026-05-08 15:58 | -17.75560 | 177.44286 | 47 ft | 107 kts | 217° |
| 2026-05-08 15:59 | -17.76303 | 177.43679 | 49 ft | 162 kts | 221° |
| 2026-05-08 15:59 | -17.77213 | 177.42936 | 585 ft | 164 kts | 215° |
| 2026-05-08 15:59 | -17.78142 | 177.42245 | 1273 ft | 162 kts | 213° |
| 2026-05-08 15:59 | -17.79093 | 177.41563 | 1698 ft | 169 kts | 212° |
| 2026-05-08 16:00 | -17.80082 | 177.40822 | 1929 ft | 185 kts | 215° |
| 2026-05-08 16:00 | -17.81128 | 177.39957 | 2217 ft | 199 kts | 218° |
| 2026-05-08 16:00 | -17.82236 | 177.38997 | 2495 ft | 215 kts | 219° |
| 2026-05-08 16:00 | -17.83421 | 177.37937 | 2835 ft | 230 kts | 220° |
| 2026-05-08 16:01 | -17.84509 | 177.36646 | 3213 ft | 243 kts | 239° |
| 2026-05-08 16:01 | -17.85069 | 177.34940 | 3562 ft | 255 kts | 267° |
| 2026-05-08 16:01 | -17.84717 | 177.33125 | 4160 ft | 255 kts | 291° |
| 2026-05-08 16:01 | -17.83976 | 177.31453 | 4886 ft | 252 kts | 298° |
| 2026-05-08 16:02 | -17.82833 | 177.30045 | 5385 ft | 262 kts | 324° |
| 2026-05-08 16:02 | -17.81059 | 177.29534 | 5771 ft | 276 kts | 4° |
| 2026-05-08 16:02 | -17.79279 | 177.30288 | 6278 ft | 284 kts | 33° |
| 2026-05-08 16:02 | -17.77632 | 177.31510 | 6630 ft | 295 kts | 36° |
| 2026-05-08 16:03 | -17.75973 | 177.32764 | 7282 ft | 293 kts | 33° |
| 2026-05-08 16:03 | -17.74256 | 177.33914 | 7915 ft | 293 kts | 32° |
| 2026-05-08 16:03 | -17.72517 | 177.35036 | 8542 ft | 294 kts | 32° |
| 2026-05-08 16:03 | -17.70766 | 177.36163 | 9137 ft | 297 kts | 32° |
| 2026-05-08 16:04 | -17.69001 | 177.37302 | 9741 ft | 299 kts | 32° |
| 2026-05-08 16:04 | -17.67223 | 177.38457 | 10246 ft | 304 kts | 33° |
| 2026-05-08 16:04 | -17.65557 | 177.39832 | 10491 ft | 317 kts | 46° |
| 2026-05-08 16:04 | -17.64174 | 177.41735 | 10740 ft | 330 kts | 59° |
| 2026-05-08 16:05 | -17.62963 | 177.43831 | 10975 ft | 342 kts | 60° |
| 2026-05-08 16:05 | -17.61726 | 177.46010 | 11218 ft | 355 kts | 60° |